sensor_id;sensor_type;location;lat;lon;timestamp;P1;durP1;ratioP1;P2;durP2;ratioP2
7045;SDS011;3564;53.326;10.356;2023-05-07T00:00:36;8.87;;;7.73;;
7045;SDS011;3564;53.326;10.356;2023-05-07T00:03:02;9.73;;;7.77;;
7045;SDS011;3564;53.326;10.356;2023-05-07T00:05:28;8.57;;;7.67;;
7045;SDS011;3564;53.326;10.356;2023-05-07T00:07:53;8.37;;;7.47;;
7045;SDS011;3564;53.326;10.356;2023-05-07T00:10:19;10.53;;;7.90;;
7045;SDS011;3564;53.326;10.356;2023-05-07T00:12:45;8.63;;;7.50;;
7045;SDS011;3564;53.326;10.356;2023-05-07T00:15:10;8.77;;;7.23;;
7045;SDS011;3564;53.326;10.356;2023-05-07T00:17:36;8.17;;;6.83;;
7045;SDS011;3564;53.326;10.356;2023-05-07T00:20:02;7.93;;;7.13;;
7045;SDS011;3564;53.326;10.356;2023-05-07T00:22:30;6.50;;;5.87;;
7045;SDS011;3564;53.326;10.356;2023-05-07T00:24:57;7.70;;;6.27;;
7045;SDS011;3564;53.326;10.356;2023-05-07T00:27:24;6.47;;;5.70;;
7045;SDS011;3564;53.326;10.356;2023-05-07T00:29:50;6.40;;;5.77;;
7045;SDS011;3564;53.326;10.356;2023-05-07T00:32:15;9.80;;;5.80;;
7045;SDS011;3564;53.326;10.356;2023-05-07T00:34:41;6.10;;;5.43;;
7045;SDS011;3564;53.326;10.356;2023-05-07T00:37:07;6.93;;;5.33;;
7045;SDS011;3564;53.326;10.356;2023-05-07T00:39:33;6.23;;;5.60;;
7045;SDS011;3564;53.326;10.356;2023-05-07T00:42:00;6.33;;;5.67;;
7045;SDS011;3564;53.326;10.356;2023-05-07T00:44:26;8.00;;;6.10;;
7045;SDS011;3564;53.326;10.356;2023-05-07T00:46:52;6.50;;;5.80;;
7045;SDS011;3564;53.326;10.356;2023-05-07T00:49:18;6.10;;;5.50;;
7045;SDS011;3564;53.326;10.356;2023-05-07T00:51:44;6.03;;;5.43;;
7045;SDS011;3564;53.326;10.356;2023-05-07T00:54:10;6.97;;;6.00;;
7045;SDS011;3564;53.326;10.356;2023-05-07T00:56:36;5.87;;;5.27;;
7045;SDS011;3564;53.326;10.356;2023-05-07T00:59:02;5.47;;;4.97;;
7045;SDS011;3564;53.326;10.356;2023-05-07T01:01:28;6.50;;;5.40;;
7045;SDS011;3564;53.326;10.356;2023-05-07T01:03:54;7.03;;;5.07;;
7045;SDS011;3564;53.326;10.356;2023-05-07T01:06:21;6.33;;;5.73;;
7045;SDS011;3564;53.326;10.356;2023-05-07T01:08:48;6.90;;;5.50;;
7045;SDS011;3564;53.326;10.356;2023-05-07T01:11:19;6.67;;;5.80;;
7045;SDS011;3564;53.326;10.356;2023-05-07T01:13:46;5.83;;;5.30;;
7045;SDS011;3564;53.326;10.356;2023-05-07T01:16:12;9.43;;;5.10;;
7045;SDS011;3564;53.326;10.356;2023-05-07T01:18:38;7.30;;;5.80;;
7045;SDS011;3564;53.326;10.356;2023-05-07T01:21:04;6.53;;;5.80;;
7045;SDS011;3564;53.326;10.356;2023-05-07T01:23:31;6.03;;;5.43;;
7045;SDS011;3564;53.326;10.356;2023-05-07T01:25:58;6.87;;;6.00;;
7045;SDS011;3564;53.326;10.356;2023-05-07T01:28:24;6.53;;;5.93;;
7045;SDS011;3564;53.326;10.356;2023-05-07T01:30:52;7.17;;;6.47;;
7045;SDS011;3564;53.326;10.356;2023-05-07T01:33:21;6.07;;;5.47;;
7045;SDS011;3564;53.326;10.356;2023-05-07T01:35:47;6.27;;;5.67;;
7045;SDS011;3564;53.326;10.356;2023-05-07T01:38:16;6.00;;;5.40;;
7045;SDS011;3564;53.326;10.356;2023-05-07T01:40:43;5.90;;;5.30;;
7045;SDS011;3564;53.326;10.356;2023-05-07T01:43:09;7.67;;;5.67;;
7045;SDS011;3564;53.326;10.356;2023-05-07T01:45:35;7.00;;;5.73;;
7045;SDS011;3564;53.326;10.356;2023-05-07T01:48:02;7.77;;;6.33;;
7045;SDS011;3564;53.326;10.356;2023-05-07T01:50:28;7.67;;;6.20;;
7045;SDS011;3564;53.326;10.356;2023-05-07T01:52:55;7.63;;;6.83;;
7045;SDS011;3564;53.326;10.356;2023-05-07T01:55:21;7.27;;;6.37;;
7045;SDS011;3564;53.326;10.356;2023-05-07T01:57:47;8.10;;;6.20;;
7045;SDS011;3564;53.326;10.356;2023-05-07T02:00:12;7.13;;;6.43;;
7045;SDS011;3564;53.326;10.356;2023-05-07T02:02:38;7.07;;;6.23;;
7045;SDS011;3564;53.326;10.356;2023-05-07T02:05:04;7.97;;;6.70;;
7045;SDS011;3564;53.326;10.356;2023-05-07T02:07:31;6.97;;;5.93;;
7045;SDS011;3564;53.326;10.356;2023-05-07T02:09:57;7.90;;;7.10;;
7045;SDS011;3564;53.326;10.356;2023-05-07T02:12:22;9.00;;;7.50;;
7045;SDS011;3564;53.326;10.356;2023-05-07T02:14:48;7.87;;;7.07;;
7045;SDS011;3564;53.326;10.356;2023-05-07T02:17:14;8.67;;;7.23;;
7045;SDS011;3564;53.326;10.356;2023-05-07T02:19:39;8.57;;;7.47;;
7045;SDS011;3564;53.326;10.356;2023-05-07T02:22:05;8.03;;;7.23;;
7045;SDS011;3564;53.326;10.356;2023-05-07T02:24:31;9.53;;;7.63;;
7045;SDS011;3564;53.326;10.356;2023-05-07T02:26:57;7.83;;;7.07;;
7045;SDS011;3564;53.326;10.356;2023-05-07T02:29:22;8.63;;;7.27;;
7045;SDS011;3564;53.326;10.356;2023-05-07T02:31:48;7.73;;;6.93;;
7045;SDS011;3564;53.326;10.356;2023-05-07T02:34:18;8.63;;;7.10;;
7045;SDS011;3564;53.326;10.356;2023-05-07T02:36:43;8.03;;;7.23;;
7045;SDS011;3564;53.326;10.356;2023-05-07T02:39:09;7.67;;;6.87;;
7045;SDS011;3564;53.326;10.356;2023-05-07T02:41:34;7.60;;;6.80;;
7045;SDS011;3564;53.326;10.356;2023-05-07T02:44:00;8.20;;;7.00;;
7045;SDS011;3564;53.326;10.356;2023-05-07T02:46:27;7.07;;;6.37;;
7045;SDS011;3564;53.326;10.356;2023-05-07T02:48:53;8.70;;;6.73;;
7045;SDS011;3564;53.326;10.356;2023-05-07T02:51:22;7.20;;;6.47;;
7045;SDS011;3564;53.326;10.356;2023-05-07T02:53:48;7.67;;;6.80;;
7045;SDS011;3564;53.326;10.356;2023-05-07T02:56:13;8.57;;;6.97;;
7045;SDS011;3564;53.326;10.356;2023-05-07T02:58:39;8.77;;;6.63;;
7045;SDS011;3564;53.326;10.356;2023-05-07T03:01:06;7.93;;;6.90;;
7045;SDS011;3564;53.326;10.356;2023-05-07T03:03:32;8.33;;;7.10;;
7045;SDS011;3564;53.326;10.356;2023-05-07T03:05:58;7.67;;;6.87;;
7045;SDS011;3564;53.326;10.356;2023-05-07T03:08:25;8.57;;;7.53;;
7045;SDS011;3564;53.326;10.356;2023-05-07T03:10:50;8.63;;;7.23;;
7045;SDS011;3564;53.326;10.356;2023-05-07T03:13:16;8.07;;;7.27;;
7045;SDS011;3564;53.326;10.356;2023-05-07T03:15:42;8.83;;;7.60;;
7045;SDS011;3564;53.326;10.356;2023-05-07T03:18:07;8.10;;;6.47;;
7045;SDS011;3564;53.326;10.356;2023-05-07T03:20:33;8.60;;;7.63;;
7045;SDS011;3564;53.326;10.356;2023-05-07T03:22:59;7.63;;;6.40;;
7045;SDS011;3564;53.326;10.356;2023-05-07T03:25:25;8.30;;;7.37;;
7045;SDS011;3564;53.326;10.356;2023-05-07T03:27:50;9.37;;;7.30;;
7045;SDS011;3564;53.326;10.356;2023-05-07T03:30:16;7.67;;;6.87;;
7045;SDS011;3564;53.326;10.356;2023-05-07T03:32:42;8.33;;;6.93;;
7045;SDS011;3564;53.326;10.356;2023-05-07T03:35:07;8.07;;;7.17;;
7045;SDS011;3564;53.326;10.356;2023-05-07T03:37:33;8.13;;;7.23;;
7045;SDS011;3564;53.326;10.356;2023-05-07T03:39:59;7.37;;;6.33;;
7045;SDS011;3564;53.326;10.356;2023-05-07T03:42:25;8.30;;;7.07;;
7045;SDS011;3564;53.326;10.356;2023-05-07T03:44:51;8.47;;;6.47;;
7045;SDS011;3564;53.326;10.356;2023-05-07T03:47:16;9.17;;;7.00;;
7045;SDS011;3564;53.326;10.356;2023-05-07T03:49:42;7.73;;;6.80;;
7045;SDS011;3564;53.326;10.356;2023-05-07T03:52:07;8.40;;;7.23;;
7045;SDS011;3564;53.326;10.356;2023-05-07T03:54:33;7.27;;;6.57;;
7045;SDS011;3564;53.326;10.356;2023-05-07T03:56:59;7.50;;;6.47;;
7045;SDS011;3564;53.326;10.356;2023-05-07T03:59:24;8.43;;;6.80;;
7045;SDS011;3564;53.326;10.356;2023-05-07T04:01:50;7.47;;;6.67;;
7045;SDS011;3564;53.326;10.356;2023-05-07T04:04:16;8.10;;;6.77;;
7045;SDS011;3564;53.326;10.356;2023-05-07T04:06:41;7.20;;;6.30;;
7045;SDS011;3564;53.326;10.356;2023-05-07T04:09:07;8.70;;;7.23;;
7045;SDS011;3564;53.326;10.356;2023-05-07T04:11:33;7.47;;;6.73;;
7045;SDS011;3564;53.326;10.356;2023-05-07T04:13:58;8.40;;;6.83;;
7045;SDS011;3564;53.326;10.356;2023-05-07T04:16:24;8.43;;;7.07;;
7045;SDS011;3564;53.326;10.356;2023-05-07T04:18:50;7.67;;;6.73;;
7045;SDS011;3564;53.326;10.356;2023-05-07T04:21:16;8.70;;;7.20;;
7045;SDS011;3564;53.326;10.356;2023-05-07T04:23:46;8.40;;;6.90;;
7045;SDS011;3564;53.326;10.356;2023-05-07T04:26:13;8.17;;;6.87;;
7045;SDS011;3564;53.326;10.356;2023-05-07T04:28:39;7.70;;;6.80;;
7045;SDS011;3564;53.326;10.356;2023-05-07T04:31:05;7.50;;;6.47;;
7045;SDS011;3564;53.326;10.356;2023-05-07T04:33:31;9.33;;;7.20;;
7045;SDS011;3564;53.326;10.356;2023-05-07T04:35:57;9.83;;;7.30;;
7045;SDS011;3564;53.326;10.356;2023-05-07T04:38:27;9.40;;;7.17;;
7045;SDS011;3564;53.326;10.356;2023-05-07T04:40:57;8.53;;;6.73;;
7045;SDS011;3564;53.326;10.356;2023-05-07T04:43:28;8.97;;;7.27;;
7045;SDS011;3564;53.326;10.356;2023-05-07T04:45:53;9.47;;;7.23;;
7045;SDS011;3564;53.326;10.356;2023-05-07T04:48:19;9.20;;;7.73;;
7045;SDS011;3564;53.326;10.356;2023-05-07T04:50:48;9.03;;;7.07;;
7045;SDS011;3564;53.326;10.356;2023-05-07T04:53:15;8.27;;;7.13;;
7045;SDS011;3564;53.326;10.356;2023-05-07T04:55:41;9.37;;;7.53;;
7045;SDS011;3564;53.326;10.356;2023-05-07T04:58:07;9.67;;;7.27;;
7045;SDS011;3564;53.326;10.356;2023-05-07T05:00:33;9.47;;;7.00;;
7045;SDS011;3564;53.326;10.356;2023-05-07T05:02:59;9.50;;;7.87;;
7045;SDS011;3564;53.326;10.356;2023-05-07T05:05:24;9.60;;;8.00;;
7045;SDS011;3564;53.326;10.356;2023-05-07T05:07:50;9.07;;;7.63;;
7045;SDS011;3564;53.326;10.356;2023-05-07T05:10:16;9.17;;;6.93;;
7045;SDS011;3564;53.326;10.356;2023-05-07T05:12:42;9.23;;;7.90;;
7045;SDS011;3564;53.326;10.356;2023-05-07T05:15:08;9.43;;;7.40;;
7045;SDS011;3564;53.326;10.356;2023-05-07T05:17:35;11.53;;;7.80;;
7045;SDS011;3564;53.326;10.356;2023-05-07T05:20:01;10.20;;;7.37;;
7045;SDS011;3564;53.326;10.356;2023-05-07T05:22:27;9.17;;;7.77;;
7045;SDS011;3564;53.326;10.356;2023-05-07T05:24:54;9.83;;;7.27;;
7045;SDS011;3564;53.326;10.356;2023-05-07T05:27:20;8.70;;;7.17;;
7045;SDS011;3564;53.326;10.356;2023-05-07T05:29:45;7.43;;;6.63;;
7045;SDS011;3564;53.326;10.356;2023-05-07T05:32:11;10.10;;;7.57;;
7045;SDS011;3564;53.326;10.356;2023-05-07T05:34:36;9.47;;;7.37;;
7045;SDS011;3564;53.326;10.356;2023-05-07T05:37:02;10.30;;;8.00;;
7045;SDS011;3564;53.326;10.356;2023-05-07T05:39:27;8.97;;;7.07;;
7045;SDS011;3564;53.326;10.356;2023-05-07T05:41:53;8.00;;;7.20;;
7045;SDS011;3564;53.326;10.356;2023-05-07T05:44:19;9.47;;;7.37;;
7045;SDS011;3564;53.326;10.356;2023-05-07T05:46:44;11.20;;;7.47;;
7045;SDS011;3564;53.326;10.356;2023-05-07T05:49:10;8.67;;;7.53;;
7045;SDS011;3564;53.326;10.356;2023-05-07T05:51:36;9.30;;;7.00;;
7045;SDS011;3564;53.326;10.356;2023-05-07T05:54:01;8.13;;;6.97;;
7045;SDS011;3564;53.326;10.356;2023-05-07T05:56:27;8.40;;;7.40;;
7045;SDS011;3564;53.326;10.356;2023-05-07T05:58:52;8.07;;;6.97;;
7045;SDS011;3564;53.326;10.356;2023-05-07T06:01:18;8.27;;;6.13;;
7045;SDS011;3564;53.326;10.356;2023-05-07T06:03:44;8.00;;;7.20;;
7045;SDS011;3564;53.326;10.356;2023-05-07T06:06:09;7.83;;;6.20;;
7045;SDS011;3564;53.326;10.356;2023-05-07T06:08:35;8.20;;;6.43;;
7045;SDS011;3564;53.326;10.356;2023-05-07T06:11:01;9.80;;;6.70;;
7045;SDS011;3564;53.326;10.356;2023-05-07T06:13:28;8.00;;;6.47;;
7045;SDS011;3564;53.326;10.356;2023-05-07T06:15:53;7.67;;;5.97;;
7045;SDS011;3564;53.326;10.356;2023-05-07T06:18:19;8.53;;;6.63;;
7045;SDS011;3564;53.326;10.356;2023-05-07T06:20:45;7.83;;;6.57;;
7045;SDS011;3564;53.326;10.356;2023-05-07T06:23:10;8.13;;;6.47;;
7045;SDS011;3564;53.326;10.356;2023-05-07T06:25:36;8.20;;;6.13;;
7045;SDS011;3564;53.326;10.356;2023-05-07T06:28:02;7.90;;;6.47;;
7045;SDS011;3564;53.326;10.356;2023-05-07T06:30:27;7.57;;;6.33;;
7045;SDS011;3564;53.326;10.356;2023-05-07T06:32:53;9.90;;;6.10;;
7045;SDS011;3564;53.326;10.356;2023-05-07T06:35:18;7.43;;;6.17;;
7045;SDS011;3564;53.326;10.356;2023-05-07T06:37:44;7.17;;;5.70;;
7045;SDS011;3564;53.326;10.356;2023-05-07T06:40:10;7.93;;;6.37;;
7045;SDS011;3564;53.326;10.356;2023-05-07T06:42:36;7.57;;;6.00;;
7045;SDS011;3564;53.326;10.356;2023-05-07T06:45:02;7.13;;;5.53;;
7045;SDS011;3564;53.326;10.356;2023-05-07T06:47:28;7.83;;;5.57;;
7045;SDS011;3564;53.326;10.356;2023-05-07T06:49:53;6.30;;;5.37;;
7045;SDS011;3564;53.326;10.356;2023-05-07T06:52:19;6.40;;;5.27;;
7045;SDS011;3564;53.326;10.356;2023-05-07T06:54:45;6.40;;;5.70;;
7045;SDS011;3564;53.326;10.356;2023-05-07T06:57:10;6.70;;;5.40;;
7045;SDS011;3564;53.326;10.356;2023-05-07T06:59:36;9.77;;;5.60;;
7045;SDS011;3564;53.326;10.356;2023-05-07T07:02:01;7.93;;;5.67;;
7045;SDS011;3564;53.326;10.356;2023-05-07T07:04:27;5.97;;;5.37;;
7045;SDS011;3564;53.326;10.356;2023-05-07T07:06:53;5.80;;;5.20;;
7045;SDS011;3564;53.326;10.356;2023-05-07T07:09:19;6.13;;;5.00;;
7045;SDS011;3564;53.326;10.356;2023-05-07T07:11:44;6.53;;;5.00;;
7045;SDS011;3564;53.326;10.356;2023-05-07T07:14:10;6.73;;;5.30;;
7045;SDS011;3564;53.326;10.356;2023-05-07T07:16:36;5.77;;;5.00;;
7045;SDS011;3564;53.326;10.356;2023-05-07T07:19:01;6.53;;;5.53;;
7045;SDS011;3564;53.326;10.356;2023-05-07T07:21:27;6.00;;;5.40;;
7045;SDS011;3564;53.326;10.356;2023-05-07T07:23:52;7.17;;;5.90;;
7045;SDS011;3564;53.326;10.356;2023-05-07T07:26:18;6.13;;;5.17;;
7045;SDS011;3564;53.326;10.356;2023-05-07T07:28:44;6.87;;;6.00;;
7045;SDS011;3564;53.326;10.356;2023-05-07T07:31:10;8.13;;;5.87;;
7045;SDS011;3564;53.326;10.356;2023-05-07T07:33:36;7.67;;;5.47;;
7045;SDS011;3564;53.326;10.356;2023-05-07T07:36:02;5.97;;;5.37;;
7045;SDS011;3564;53.326;10.356;2023-05-07T07:38:27;6.20;;;5.60;;
7045;SDS011;3564;53.326;10.356;2023-05-07T07:40:53;6.73;;;5.20;;
7045;SDS011;3564;53.326;10.356;2023-05-07T07:43:19;5.83;;;5.23;;
7045;SDS011;3564;53.326;10.356;2023-05-07T07:45:45;6.03;;;5.30;;
7045;SDS011;3564;53.326;10.356;2023-05-07T07:48:11;5.37;;;4.87;;
7045;SDS011;3564;53.326;10.356;2023-05-07T07:50:36;7.50;;;5.47;;
7045;SDS011;3564;53.326;10.356;2023-05-07T07:53:02;6.50;;;5.20;;
7045;SDS011;3564;53.326;10.356;2023-05-07T07:55:28;6.10;;;4.90;;
7045;SDS011;3564;53.326;10.356;2023-05-07T07:57:54;5.73;;;4.87;;
7045;SDS011;3564;53.326;10.356;2023-05-07T08:00:19;5.37;;;4.87;;
7045;SDS011;3564;53.326;10.356;2023-05-07T08:02:45;6.23;;;5.30;;
7045;SDS011;3564;53.326;10.356;2023-05-07T08:05:10;7.63;;;5.80;;
7045;SDS011;3564;53.326;10.356;2023-05-07T08:07:36;5.23;;;4.73;;
7045;SDS011;3564;53.326;10.356;2023-05-07T08:10:01;5.67;;;5.13;;
7045;SDS011;3564;53.326;10.356;2023-05-07T08:12:27;6.17;;;5.43;;
7045;SDS011;3564;53.326;10.356;2023-05-07T08:14:53;6.37;;;5.67;;
7045;SDS011;3564;53.326;10.356;2023-05-07T08:17:19;5.80;;;5.17;;
7045;SDS011;3564;53.326;10.356;2023-05-07T08:19:48;7.97;;;5.60;;
7045;SDS011;3564;53.326;10.356;2023-05-07T08:22:14;6.00;;;5.47;;
7045;SDS011;3564;53.326;10.356;2023-05-07T08:24:40;5.90;;;5.30;;
7045;SDS011;3564;53.326;10.356;2023-05-07T08:27:06;7.70;;;5.37;;
7045;SDS011;3564;53.326;10.356;2023-05-07T08:29:31;6.00;;;5.20;;
7045;SDS011;3564;53.326;10.356;2023-05-07T08:31:57;6.33;;;5.70;;
7045;SDS011;3564;53.326;10.356;2023-05-07T08:34:22;5.40;;;4.80;;
7045;SDS011;3564;53.326;10.356;2023-05-07T08:36:48;7.13;;;5.93;;
7045;SDS011;3564;53.326;10.356;2023-05-07T08:39:15;6.20;;;5.30;;
7045;SDS011;3564;53.326;10.356;2023-05-07T08:41:43;6.27;;;5.60;;
7045;SDS011;3564;53.326;10.356;2023-05-07T08:44:13;6.03;;;5.43;;
7045;SDS011;3564;53.326;10.356;2023-05-07T08:46:39;7.30;;;5.60;;
7045;SDS011;3564;53.326;10.356;2023-05-07T08:49:07;5.30;;;4.80;;
7045;SDS011;3564;53.326;10.356;2023-05-07T08:51:32;6.97;;;5.67;;
7045;SDS011;3564;53.326;10.356;2023-05-07T08:53:58;7.37;;;5.10;;
7045;SDS011;3564;53.326;10.356;2023-05-07T08:56:26;6.23;;;5.60;;
7045;SDS011;3564;53.326;10.356;2023-05-07T08:58:51;6.10;;;5.43;;
7045;SDS011;3564;53.326;10.356;2023-05-07T09:01:21;8.73;;;5.37;;
7045;SDS011;3564;53.326;10.356;2023-05-07T09:03:47;6.10;;;5.50;;
7045;SDS011;3564;53.326;10.356;2023-05-07T09:06:12;6.13;;;5.40;;
7045;SDS011;3564;53.326;10.356;2023-05-07T09:08:38;5.73;;;5.23;;
7045;SDS011;3564;53.326;10.356;2023-05-07T09:11:04;6.63;;;5.20;;
7045;SDS011;3564;53.326;10.356;2023-05-07T09:13:29;5.97;;;4.60;;
7045;SDS011;3564;53.326;10.356;2023-05-07T09:15:55;5.73;;;4.90;;
7045;SDS011;3564;53.326;10.356;2023-05-07T09:18:21;5.73;;;5.13;;
7045;SDS011;3564;53.326;10.356;2023-05-07T09:20:48;6.73;;;5.40;;
7045;SDS011;3564;53.326;10.356;2023-05-07T09:23:14;6.13;;;5.43;;
7045;SDS011;3564;53.326;10.356;2023-05-07T09:25:40;6.03;;;5.33;;
7045;SDS011;3564;53.326;10.356;2023-05-07T09:28:05;5.40;;;4.60;;
7045;SDS011;3564;53.326;10.356;2023-05-07T09:30:32;7.93;;;6.13;;
7045;SDS011;3564;53.326;10.356;2023-05-07T09:32:59;6.80;;;5.47;;
7045;SDS011;3564;53.326;10.356;2023-05-07T09:35:27;7.30;;;5.93;;
7045;SDS011;3564;53.326;10.356;2023-05-07T09:37:57;7.17;;;5.53;;
7045;SDS011;3564;53.326;10.356;2023-05-07T09:40:25;6.77;;;5.07;;
7045;SDS011;3564;53.326;10.356;2023-05-07T09:42:52;7.90;;;5.30;;
7045;SDS011;3564;53.326;10.356;2023-05-07T09:45:27;7.23;;;5.80;;
7045;SDS011;3564;53.326;10.356;2023-05-07T09:47:56;6.03;;;5.17;;
7045;SDS011;3564;53.326;10.356;2023-05-07T09:50:34;6.77;;;5.03;;
7045;SDS011;3564;53.326;10.356;2023-05-07T09:53:01;6.13;;;5.53;;
7045;SDS011;3564;53.326;10.356;2023-05-07T09:55:28;5.70;;;4.70;;
7045;SDS011;3564;53.326;10.356;2023-05-07T09:57:54;5.87;;;5.10;;
7045;SDS011;3564;53.326;10.356;2023-05-07T10:00:20;5.27;;;4.50;;
7045;SDS011;3564;53.326;10.356;2023-05-07T10:02:48;6.27;;;5.67;;
7045;SDS011;3564;53.326;10.356;2023-05-07T10:05:17;6.13;;;5.00;;
7045;SDS011;3564;53.326;10.356;2023-05-07T10:07:44;6.47;;;5.10;;
7045;SDS011;3564;53.326;10.356;2023-05-07T10:10:11;7.10;;;5.30;;
7045;SDS011;3564;53.326;10.356;2023-05-07T10:12:37;6.77;;;5.53;;
7045;SDS011;3564;53.326;10.356;2023-05-07T10:15:05;6.00;;;5.00;;
7045;SDS011;3564;53.326;10.356;2023-05-07T10:17:33;5.83;;;5.23;;
7045;SDS011;3564;53.326;10.356;2023-05-07T10:20:04;5.20;;;4.53;;
7045;SDS011;3564;53.326;10.356;2023-05-07T10:22:37;5.73;;;5.13;;
7045;SDS011;3564;53.326;10.356;2023-05-07T10:25:06;5.53;;;4.90;;
7045;SDS011;3564;53.326;10.356;2023-05-07T10:27:44;5.93;;;5.27;;
7045;SDS011;3564;53.326;10.356;2023-05-07T10:30:30;6.17;;;4.67;;
7045;SDS011;3564;53.326;10.356;2023-05-07T10:33:18;5.07;;;4.53;;
7045;SDS011;3564;53.326;10.356;2023-05-07T10:35:47;7.60;;;4.60;;
7045;SDS011;3564;53.326;10.356;2023-05-07T10:38:13;5.40;;;4.50;;
7045;SDS011;3564;53.326;10.356;2023-05-07T10:40:39;5.77;;;5.20;;
7045;SDS011;3564;53.326;10.356;2023-05-07T10:43:05;5.40;;;4.90;;
7045;SDS011;3564;53.326;10.356;2023-05-07T10:45:31;7.67;;;4.83;;
7045;SDS011;3564;53.326;10.356;2023-05-07T10:48:13;4.93;;;4.47;;
7045;SDS011;3564;53.326;10.356;2023-05-07T10:50:41;5.17;;;4.37;;
7045;SDS011;3564;53.326;10.356;2023-05-07T10:55:52;5.30;;;4.53;;
7045;SDS011;3564;53.326;10.356;2023-05-07T10:58:43;6.20;;;4.73;;
7045;SDS011;3564;53.326;10.356;2023-05-07T11:01:09;6.10;;;4.83;;
7045;SDS011;3564;53.326;10.356;2023-05-07T11:04:24;5.70;;;5.10;;
7045;SDS011;3564;53.326;10.356;2023-05-07T11:06:38;5.60;;;4.57;;
7045;SDS011;3564;53.326;10.356;2023-05-07T11:09:05;6.17;;;4.57;;
7045;SDS011;3564;53.326;10.356;2023-05-07T11:11:46;4.93;;;4.43;;
7045;SDS011;3564;53.326;10.356;2023-05-07T11:17:07;5.10;;;3.63;;
7045;SDS011;3564;53.326;10.356;2023-05-07T11:19:54;4.50;;;4.10;;
7045;SDS011;3564;53.326;10.356;2023-05-07T11:25:04;6.27;;;4.40;;
7045;SDS011;3564;53.326;10.356;2023-05-07T11:27:31;4.53;;;4.03;;
7045;SDS011;3564;53.326;10.356;2023-05-07T11:29:57;4.33;;;3.80;;
7045;SDS011;3564;53.326;10.356;2023-05-07T11:32:23;4.53;;;4.13;;
7045;SDS011;3564;53.326;10.356;2023-05-07T11:34:53;3.80;;;3.43;;
7045;SDS011;3564;53.326;10.356;2023-05-07T11:37:19;3.40;;;3.10;;
7045;SDS011;3564;53.326;10.356;2023-05-07T11:39:46;3.43;;;3.13;;
7045;SDS011;3564;53.326;10.356;2023-05-07T11:44:57;3.60;;;3.30;;
7045;SDS011;3564;53.326;10.356;2023-05-07T11:47:23;4.23;;;3.83;;
7045;SDS011;3564;53.326;10.356;2023-05-07T11:49:49;3.97;;;3.07;;
7045;SDS011;3564;53.326;10.356;2023-05-07T11:52:17;4.63;;;3.57;;
7045;SDS011;3564;53.326;10.356;2023-05-07T11:54:54;3.80;;;3.40;;
7045;SDS011;3564;53.326;10.356;2023-05-07T11:57:22;3.30;;;3.00;;
7045;SDS011;3564;53.326;10.356;2023-05-07T11:59:52;3.47;;;3.13;;
7045;SDS011;3564;53.326;10.356;2023-05-07T12:02:18;3.17;;;2.87;;
7045;SDS011;3564;53.326;10.356;2023-05-07T12:04:44;5.03;;;3.70;;
7045;SDS011;3564;53.326;10.356;2023-05-07T12:07:13;3.50;;;3.20;;
7045;SDS011;3564;53.326;10.356;2023-05-07T12:09:41;3.40;;;3.10;;
7045;SDS011;3564;53.326;10.356;2023-05-07T12:12:07;4.00;;;2.50;;
7045;SDS011;3564;53.326;10.356;2023-05-07T12:14:37;3.70;;;2.93;;
7045;SDS011;3564;53.326;10.356;2023-05-07T12:17:04;3.43;;;3.13;;
7045;SDS011;3564;53.326;10.356;2023-05-07T12:19:30;3.70;;;3.07;;
7045;SDS011;3564;53.326;10.356;2023-05-07T12:21:56;3.20;;;2.90;;
7045;SDS011;3564;53.326;10.356;2023-05-07T12:24:23;3.47;;;2.77;;
7045;SDS011;3564;53.326;10.356;2023-05-07T12:26:49;3.27;;;2.90;;
7045;SDS011;3564;53.326;10.356;2023-05-07T12:29:15;4.67;;;2.70;;
7045;SDS011;3564;53.326;10.356;2023-05-07T12:31:41;3.07;;;2.70;;
7045;SDS011;3564;53.326;10.356;2023-05-07T12:34:08;4.23;;;2.73;;
7045;SDS011;3564;53.326;10.356;2023-05-07T12:36:38;2.60;;;2.40;;
7045;SDS011;3564;53.326;10.356;2023-05-07T12:39:08;4.70;;;2.90;;
7045;SDS011;3564;53.326;10.356;2023-05-07T12:44:20;3.57;;;2.27;;
7045;SDS011;3564;53.326;10.356;2023-05-07T12:46:49;2.90;;;2.70;;
7045;SDS011;3564;53.326;10.356;2023-05-07T12:49:15;3.20;;;2.30;;
7045;SDS011;3564;53.326;10.356;2023-05-07T12:51:42;2.83;;;2.63;;
7045;SDS011;3564;53.326;10.356;2023-05-07T12:54:08;2.60;;;2.40;;
7045;SDS011;3564;53.326;10.356;2023-05-07T12:56:37;3.53;;;3.23;;
7045;SDS011;3564;53.326;10.356;2023-05-07T12:59:02;3.83;;;2.77;;
7045;SDS011;3564;53.326;10.356;2023-05-07T13:01:29;2.30;;;2.00;;
7045;SDS011;3564;53.326;10.356;2023-05-07T13:04:00;2.57;;;2.37;;
7045;SDS011;3564;53.326;10.356;2023-05-07T13:06:27;2.67;;;2.47;;
7045;SDS011;3564;53.326;10.356;2023-05-07T13:08:55;3.23;;;2.40;;
7045;SDS011;3564;53.326;10.356;2023-05-07T13:11:20;2.60;;;2.40;;
7045;SDS011;3564;53.326;10.356;2023-05-07T13:13:46;3.90;;;2.43;;
7045;SDS011;3564;53.326;10.356;2023-05-07T13:16:11;3.37;;;2.23;;
7045;SDS011;3564;53.326;10.356;2023-05-07T13:18:38;3.27;;;2.40;;
7045;SDS011;3564;53.326;10.356;2023-05-07T13:21:05;3.90;;;2.43;;
7045;SDS011;3564;53.326;10.356;2023-05-07T13:23:30;3.03;;;2.00;;
7045;SDS011;3564;53.326;10.356;2023-05-07T13:25:56;4.13;;;2.90;;
7045;SDS011;3564;53.326;10.356;2023-05-07T13:28:22;2.17;;;1.97;;
7045;SDS011;3564;53.326;10.356;2023-05-07T13:30:52;2.30;;;2.10;;
7045;SDS011;3564;53.326;10.356;2023-05-07T13:33:26;2.57;;;2.37;;
7045;SDS011;3564;53.326;10.356;2023-05-07T13:35:52;2.33;;;2.13;;
7045;SDS011;3564;53.326;10.356;2023-05-07T13:38:17;2.20;;;2.00;;
7045;SDS011;3564;53.326;10.356;2023-05-07T13:40:46;2.40;;;2.20;;
7045;SDS011;3564;53.326;10.356;2023-05-07T13:43:11;3.43;;;2.37;;
7045;SDS011;3564;53.326;10.356;2023-05-07T13:45:37;2.47;;;2.00;;
7045;SDS011;3564;53.326;10.356;2023-05-07T13:48:03;2.57;;;2.23;;
7045;SDS011;3564;53.326;10.356;2023-05-07T13:50:28;1.87;;;1.77;;
7045;SDS011;3564;53.326;10.356;2023-05-07T13:52:55;3.83;;;2.10;;
7045;SDS011;3564;53.326;10.356;2023-05-07T13:55:21;2.77;;;2.43;;
7045;SDS011;3564;53.326;10.356;2023-05-07T13:57:54;2.00;;;1.80;;
7045;SDS011;3564;53.326;10.356;2023-05-07T14:00:21;2.20;;;2.00;;
7045;SDS011;3564;53.326;10.356;2023-05-07T14:02:48;1.80;;;1.70;;
7045;SDS011;3564;53.326;10.356;2023-05-07T14:05:13;2.50;;;2.00;;
7045;SDS011;3564;53.326;10.356;2023-05-07T14:07:39;3.33;;;1.93;;
7045;SDS011;3564;53.326;10.356;2023-05-07T14:10:05;4.97;;;1.90;;
7045;SDS011;3564;53.326;10.356;2023-05-07T14:12:31;2.10;;;1.87;;
7045;SDS011;3564;53.326;10.356;2023-05-07T14:14:57;1.93;;;1.80;;
7045;SDS011;3564;53.326;10.356;2023-05-07T14:17:23;2.20;;;1.87;;
7045;SDS011;3564;53.326;10.356;2023-05-07T14:19:51;4.13;;;2.00;;
7045;SDS011;3564;53.326;10.356;2023-05-07T14:22:19;2.23;;;1.90;;
7045;SDS011;3564;53.326;10.356;2023-05-07T14:24:48;2.20;;;2.00;;
7045;SDS011;3564;53.326;10.356;2023-05-07T14:27:14;1.90;;;1.70;;
7045;SDS011;3564;53.326;10.356;2023-05-07T14:29:42;2.27;;;1.97;;
7045;SDS011;3564;53.326;10.356;2023-05-07T14:32:08;2.33;;;1.97;;
7045;SDS011;3564;53.326;10.356;2023-05-07T14:34:33;2.57;;;2.03;;
7045;SDS011;3564;53.326;10.356;2023-05-07T14:36:59;2.10;;;1.90;;
7045;SDS011;3564;53.326;10.356;2023-05-07T14:39:25;2.07;;;1.80;;
7045;SDS011;3564;53.326;10.356;2023-05-07T14:41:51;2.10;;;1.90;;
7045;SDS011;3564;53.326;10.356;2023-05-07T14:44:17;1.80;;;1.70;;
7045;SDS011;3564;53.326;10.356;2023-05-07T14:46:42;2.40;;;2.20;;
7045;SDS011;3564;53.326;10.356;2023-05-07T14:49:08;3.40;;;1.93;;
7045;SDS011;3564;53.326;10.356;2023-05-07T14:51:41;1.93;;;1.83;;
7045;SDS011;3564;53.326;10.356;2023-05-07T14:54:08;4.33;;;2.03;;
7045;SDS011;3564;53.326;10.356;2023-05-07T14:56:34;2.33;;;2.13;;
7045;SDS011;3564;53.326;10.356;2023-05-07T14:59:01;2.43;;;2.00;;
7045;SDS011;3564;53.326;10.356;2023-05-07T15:01:27;2.07;;;1.87;;
7045;SDS011;3564;53.326;10.356;2023-05-07T15:03:53;5.10;;;2.27;;
7045;SDS011;3564;53.326;10.356;2023-05-07T15:06:19;3.80;;;2.20;;
7045;SDS011;3564;53.326;10.356;2023-05-07T15:08:44;2.30;;;2.10;;
7045;SDS011;3564;53.326;10.356;2023-05-07T15:11:16;1.80;;;1.70;;